createdAt,value
2019-05-16T00:05:09.992Z,0.90
2019-05-16T00:11:11.524Z,0.90
2019-05-16T00:17:13.122Z,0.78
2019-05-16T00:23:14.789Z,1.05
2019-05-16T00:29:18.348Z,1.15
2019-05-16T00:35:20.801Z,1.00
2019-05-16T00:41:23.326Z,1.25
2019-05-16T00:47:25.475Z,1.35
2019-05-16T00:53:28.906Z,1.22
2019-05-16T00:59:31.369Z,0.90
2019-05-16T01:05:33.011Z,0.98
2019-05-16T01:11:34.529Z,1.10
2019-05-16T01:17:38.789Z,1.20
2019-05-16T01:23:41.546Z,1.00
2019-05-16T01:29:43.367Z,1.50
2019-05-16T01:35:44.944Z,1.02
2019-05-16T01:41:48.072Z,1.35
2019-05-16T01:47:49.664Z,1.15
2019-05-16T01:53:51.251Z,1.10
2019-05-16T01:59:52.764Z,1.30
2019-05-16T02:05:54.337Z,1.40
2019-05-16T02:11:55.827Z,1.60
2019-05-16T02:17:58.711Z,1.47
2019-05-16T02:24:02.049Z,1.50
2019-05-16T02:30:05.973Z,1.30
2019-05-16T02:36:10.675Z,1.75
2019-05-16T02:42:12.100Z,1.50
2019-05-16T02:48:13.767Z,1.47
2019-05-16T02:54:15.213Z,1.42
2019-05-16T03:00:20.940Z,1.57
2019-05-16T03:06:22.756Z,1.60
2019-05-16T03:12:25.626Z,1.57
2019-05-16T03:18:30.996Z,1.30
2019-05-16T03:24:33.081Z,1.70
2019-05-16T03:30:36.466Z,1.62
2019-05-16T03:36:43.442Z,1.32
2019-05-16T03:42:43.631Z,1.60
2019-05-16T03:48:45.068Z,1.70
2019-05-16T03:54:46.610Z,1.85
2019-05-16T04:00:54.453Z,1.70
2019-05-16T04:07:01.391Z,1.90
2019-05-16T04:13:03.908Z,1.80
2019-05-16T04:19:05.510Z,1.72
2019-05-16T04:25:07.089Z,1.50
2019-05-16T04:31:10.998Z,1.77
2019-05-16T04:37:12.019Z,1.90
2019-05-16T04:43:13.488Z,1.55
2019-05-16T04:49:15.033Z,1.70
2019-05-16T04:55:16.571Z,1.40
2019-05-16T05:01:21.189Z,1.50
2019-05-16T05:07:21.469Z,1.62
2019-05-16T05:13:22.965Z,1.62
2019-05-16T05:19:24.521Z,1.20
2019-05-16T05:25:26.092Z,1.50
2019-05-16T05:31:34.418Z,1.22
2019-05-16T05:37:30.835Z,1.35
2019-05-16T05:43:32.375Z,1.22
2019-05-16T05:49:33.941Z,1.42
2019-05-16T05:55:40.296Z,1.62
2019-05-16T06:01:40.686Z,1.47
2019-05-16T06:07:42.699Z,1.40
2019-05-16T06:13:44.329Z,1.47
2019-05-16T06:19:49.605Z,1.30
2019-05-16T06:25:50.645Z,1.30
2019-05-16T06:31:53.238Z,1.42
2019-05-16T06:37:54.863Z,1.40
2019-05-16T06:43:56.756Z,1.15
2019-05-16T06:50:00.093Z,1.22
2019-05-16T06:56:01.466Z,1.37
2019-05-16T07:02:03.254Z,1.50
2019-05-16T07:08:05.039Z,1.65
2019-05-16T07:14:06.694Z,1.45
2019-05-16T07:20:10.389Z,1.60
2019-05-16T07:26:12.249Z,1.65
2019-05-16T07:32:13.821Z,1.95
2019-05-16T07:38:15.454Z,1.80
2019-05-16T07:44:17.027Z,1.90
2019-05-16T07:50:20.178Z,2.22
2019-05-16T07:56:21.852Z,2.17
2019-05-16T08:02:23.504Z,2.15
2019-05-16T08:08:25.098Z,2.20
2019-05-16T08:14:26.820Z,2.30
2019-05-16T08:20:31.243Z,2.40
2019-05-16T08:26:35.429Z,2.22
2019-05-16T08:32:35.182Z,1.95
2019-05-16T08:38:36.800Z,1.95
2019-05-16T08:50:50.287Z,2.30
2019-05-16T08:56:46.204Z,1.95
2019-05-16T09:02:47.658Z,1.90
2019-05-16T09:08:49.156Z,1.90
2019-05-16T09:10:21.222Z,2.12
2019-05-16T09:14:50.699Z,2.12
2019-05-16T09:20:52.200Z,2.05
2019-05-16T09:26:53.852Z,1.98
2019-05-16T09:32:55.444Z,1.80
2019-05-16T09:38:57.943Z,2.10
2019-05-16T09:44:59.554Z,1.85
2019-05-16T09:51:01.329Z,1.30
2019-05-16T09:57:03.014Z,1.60
2019-05-16T10:03:07.172Z,1.60
2019-05-16T10:09:09.340Z,1.70
2019-05-16T10:15:12.473Z,2.42
2019-05-16T10:21:17.801Z,2.40
2019-05-16T10:27:17.423Z,2.10
2019-05-16T10:33:19.423Z,1.92
2019-05-16T10:39:21.465Z,2.35
2019-05-16T10:45:23.085Z,1.72
2019-05-16T10:51:26.737Z,2.00
2019-05-16T10:57:29.922Z,1.60
2019-05-16T11:03:31.688Z,1.92
2019-05-16T11:09:33.460Z,2.50
2019-05-16T11:15:37.404Z,2.52
2019-05-16T11:21:38.765Z,3.30
2019-05-16T11:27:40.341Z,3.58
2019-05-16T11:33:41.897Z,3.17
2019-05-16T11:39:43.451Z,3.12
2019-05-16T11:45:46.856Z,3.00
2019-05-16T11:51:48.521Z,2.75
2019-05-16T11:57:50.951Z,2.77
2019-05-16T12:03:52.421Z,2.92
2019-05-16T12:09:55.756Z,2.75
2019-05-16T12:15:57.367Z,3.33
2019-05-16T12:21:59.122Z,3.80
2019-05-16T12:28:02.194Z,3.83
2019-05-16T12:34:04.170Z,4.53
2019-05-16T12:40:07.138Z,4.37
2019-05-16T12:46:08.767Z,3.98
2019-05-16T12:52:10.359Z,3.92
2019-05-16T12:58:13.327Z,6.30
2019-05-16T13:04:18.856Z,3.47
2019-05-16T13:10:19.256Z,3.37
2019-05-16T13:16:20.746Z,3.20
2019-05-16T13:22:22.201Z,2.60
2019-05-16T13:28:23.877Z,2.70
2019-05-16T13:34:28.050Z,3.00
2019-05-16T13:40:28.737Z,3.27
2019-05-16T13:46:31.263Z,3.60
2019-05-16T13:52:32.902Z,3.12
2019-05-16T13:58:34.310Z,3.33
2019-05-16T14:04:39.606Z,3.40
2019-05-16T14:10:42.475Z,2.83
2019-05-16T14:16:44.048Z,2.62
2019-05-16T14:22:45.739Z,2.80
2019-05-16T14:28:51.206Z,2.72
2019-05-16T14:34:52.698Z,2.40
2019-05-16T14:40:54.297Z,2.87
2019-05-16T14:46:55.763Z,2.58
2019-05-16T14:52:57.198Z,11.38
2019-05-16T14:58:58.659Z,8.45
2019-05-16T15:05:00.235Z,4.65
2019-05-16T15:11:01.753Z,2.40
2019-05-16T15:17:06.850Z,2.50
2019-05-16T15:23:07.940Z,2.47
2019-05-16T15:29:09.343Z,2.00
2019-05-16T15:35:11.434Z,2.30
2019-05-16T15:41:12.906Z,2.52
2019-05-16T15:47:17.422Z,2.20
2019-05-16T15:53:20.998Z,2.52
2019-05-16T15:59:22.587Z,2.60
2019-05-16T16:05:26.590Z,4.12
2019-05-16T16:11:27.768Z,3.72
2019-05-16T16:17:29.544Z,3.05
2019-05-16T16:23:31.255Z,4.05
2019-05-16T16:29:33.333Z,2.90
2019-05-16T16:35:37.842Z,2.20
2019-05-16T16:41:38.331Z,2.27
2019-05-16T16:47:39.800Z,2.40
2019-05-16T16:53:43.171Z,2.30
2019-05-16T16:59:44.682Z,4.42
2019-05-16T17:05:46.591Z,2.30
2019-05-16T17:11:48.283Z,2.98
2019-05-16T17:17:49.741Z,2.10
2019-05-16T17:23:52.231Z,3.77
2019-05-16T17:29:53.772Z,7.90
2019-05-16T17:35:55.386Z,3.77
2019-05-16T17:41:57.993Z,23.50
2019-05-16T17:48:01.482Z,3.98
2019-05-16T17:54:03.160Z,4.50
2019-05-16T18:00:07.130Z,2.47
2019-05-16T18:06:09.585Z,3.70
2019-05-16T18:12:11.240Z,3.08
2019-05-16T18:18:12.889Z,5.33
2019-05-16T18:24:16.543Z,3.72
2019-05-16T18:30:23.109Z,3.37
2019-05-16T18:36:26.623Z,3.27
2019-05-16T18:42:28.126Z,3.22
2019-05-16T18:48:29.875Z,3.30
2019-05-16T18:54:31.437Z,4.37
2019-05-16T19:00:33.039Z,4.08
2019-05-16T19:06:36.866Z,4.97
2019-05-16T19:12:38.193Z,4.95
2019-05-16T19:18:39.840Z,5.72
2019-05-16T19:24:42.834Z,5.10
2019-05-16T19:30:46.515Z,7.80
2019-05-16T19:36:50.071Z,8.43
2019-05-16T19:42:52.016Z,7.87
2019-05-16T19:48:53.617Z,8.78
2019-05-16T19:54:56.424Z,8.43
2019-05-16T20:00:58.287Z,10.00
2019-05-16T20:06:59.734Z,8.58
2019-05-16T20:13:01.513Z,12.05
2019-05-16T20:19:04.026Z,11.03
2019-05-16T20:25:05.784Z,8.98
2019-05-16T20:31:07.977Z,9.58
2019-05-16T20:37:09.734Z,11.65
2019-05-16T20:43:12.386Z,10.50
2019-05-16T20:49:16.635Z,11.88
2019-05-16T20:55:17.680Z,9.95
2019-05-16T21:01:19.205Z,11.83
2019-05-16T21:07:20.664Z,11.85
2019-05-16T21:13:22.192Z,12.40
2019-05-16T21:19:23.737Z,10.35
2019-05-16T21:25:26.349Z,9.35
2019-05-16T21:31:28.914Z,9.25
2019-05-16T21:37:30.634Z,10.43
2019-05-16T21:43:32.294Z,9.38
2019-05-16T21:49:37.043Z,8.55
2019-05-16T21:55:39.173Z,9.40
2019-05-16T22:01:41.215Z,8.68
2019-05-16T22:07:42.645Z,9.60
2019-05-16T22:13:46.360Z,11.30
2019-05-16T22:19:47.677Z,7.28
2019-05-16T22:25:49.424Z,7.47
2019-05-16T22:31:50.884Z,6.60
2019-05-16T22:37:56.431Z,7.05
2019-05-16T22:44:13.439Z,7.45
2019-05-16T22:50:17.551Z,7.95
2019-05-16T22:56:19.581Z,9.23
2019-05-16T23:02:21.042Z,8.20
2019-05-16T23:08:22.766Z,9.38
2019-05-16T23:14:26.388Z,10.35
2019-05-16T23:20:27.949Z,12.85
2019-05-16T23:26:29.552Z,12.33
2019-05-16T23:32:31.164Z,10.25
2019-05-16T23:38:32.843Z,10.98
2019-05-16T23:44:36.708Z,11.40
2019-05-16T23:50:37.662Z,12.23
2019-05-16T23:56:39.114Z,10.20
